• Join FlightAware (Why Join?)
  • Login
  • US Flag 
05:25PM EST


 

Airport Tracker/Info


-or-


 

Live Flight TrackerFlight Track Log ✈ SWA378 ✈ 08-May-2013 ✈ KBWI - KALB

Flight Track Log - Related Links

Times and Time Zones

All times are in EDT time to prevent confusion due to time zone crossing. See the SWA378 flight status page for this flight to view local times or setup timezone preferences in your user account.

Time Position Orientation Groundspeed Altitude Reporting Facility
EDT Latitude Longitude Course Direction KTS MPH feet Rate Location/Type
10:44PM 39.1833 -76.7167 118° Southeast 170 196 1,800  Level Potomac TRACON
10:46PM 39.1406 -76.6111 118° Southeast 245 282 6,400 2,340 Climbing Washington Center
10:47PM 39.1414 -76.5069 89° East 258 297 9,400 3,060 Climbing Washington Center
10:48PM 39.1442 -76.3997 88° East 277 319 12,600 3,120 Climbing Washington Center
10:49PM 39.1469 -76.2900 88° East 291 335 15,800 3,060 Climbing Washington Center
10:50PM 39.1536 -76.1725 86° East 314 361 18,800 2,280 Climbing Washington Center
10:51PM 39.1731 -76.0386 79° East 342 394 20,400 2,220 Climbing Washington Center
10:52PM 39.1942 -75.8994 79° East 376 433 23,300 2,400 Climbing Washington Center
10:53PM 39.2694 -75.7847 50° Northeast 387 445 25,300 1,500 Climbing Washington Center
10:54PM 39.3614 -75.6639 45° Northeast 421 484 26,400 1,320 Climbing Washington Center
10:55PM 39.4572 -75.5378 45° Northeast 451 519 28,000 1,200 Climbing Washington Center
10:56PM 39.5550 -75.4139 44° Northeast 477 549 28,900 420 Climbing Washington Center
10:57PM 39.6528 -75.2842 46° Northeast 488 562 28,900 900 Level Washington Center
10:58PM 39.7686 -75.1164 48° Northeast 494 568 30,900 900 Climbing New York Center
10:59PM 39.8589 -74.9842 48° Northeast 484 557 31,000  Climbing New York Center
11:00PM 39.9464 -74.8675 46° Northeast 484 557 31,000  Level New York Center
11:01PM 40.0506 -74.7517 40° Northeast 484 557 31,000 -60 Level New York Center
11:02PM 40.1525 -74.6325 42° Northeast 479 551 30,900 -300 Descending New York Center
11:03PM 40.2589 -74.4972 44° Northeast 479 551 30,500 -660 Descending New York Center
11:04PM 40.3606 -74.3772 42° Northeast 485 558 29,600 -960 Descending New York Center
11:05PM 40.4600 -74.2569 43° Northeast 485 558 28,600 -1,440 Descending New York Center
11:06PM 40.5617 -74.1364 42° Northeast 485 558 26,800 -1,800 Descending New York Center
11:07PM 40.6631 -74.0131 43° Northeast 485 558 25,000 -1,440 Descending New York Center
11:08PM 40.7642 -73.8917 42° Northeast 485 558 24,000 -420 Descending New York Center
11:10PM 40.9369 -73.6819 42° Northeast 502 578 23,900 -300 Descending Boston Center
11:11PM 41.0233 -73.5817 41° Northeast 469 540 23,200 -480 Descending Boston Center
11:12PM 41.1469 -73.5261 19° North 434 499 23,000 -600 Descending Boston Center
11:13PM 41.2719 -73.5283 359° North 434 499 22,100 -1,380 Descending Boston Center
11:14PM 41.4011 -73.5278 360° North 439 505 20,300 -2,400 Descending Boston Center
11:15PM 41.5197 -73.5297 359° North 439 505 17,300 -1,680 Descending Boston Center
11:16PM 41.6261 -73.5344 358° North 432 497 17,000 -420 Descending Boston Center
11:17PM 41.7528 -73.5644 350° North 421 484 16,500 -720 Descending Boston Center
11:18PM 41.8528 -73.5883 350° North 409 471 15,600 -1,020 Descending Boston Center
11:19PM 41.9608 -73.6156 349° North 410 472 14,600 -1,260 Descending Boston Center
11:20PM 42.0128 -73.6247 353° North 402 463 13,900 -1,860 Descending Boston Center
11:20PM 42.0836 -73.6431 349° North 404 465 12,500 -2,220 Descending Boston Center
11:21PM 42.1208 -73.6519 350° North 387 445 11,700 -1,500 Descending Boston Center
11:21PM 42.1875 -73.6703 348° North 392 451 11,000 -780 Descending Boston Center
11:21PM 42.2164 -73.6764 351° North 375 432 11,000  Level Boston Center
11:22PM 42.2850 -73.6917 351° North 373 429 11,000 -120 Level Boston Center
11:22PM 42.3122 -73.6894 North 346 398 10,900 -1,020 Descending Boston Center
11:23PM 42.4103 -73.6942 358° North 314 361 9,700 -1,320 Descending Boston Center
11:24PM 42.4956 -73.7044 355° North 308 354 8,300 -1,440 Descending Boston Center
11:25PM 42.5808 -73.7089 358° North 306 352 6,800 -1,380 Descending Boston Center
11:27PM 42.6622 -73.7106 359° North 293 337 5,600 -840 Descending Boston Center
11:28PM 42.7372 -73.7150 358° North 259 298 5,200 -1,080 Descending Boston Center
11:29PM 42.8081 -73.7136 North 235 270 3,500 -1,380 Descending Boston Center
11:30PM 42.8492 -73.7597 321° Northwest 216 249 2,400 -960 Descending Boston Center
11:31PM 42.8278 -73.8103 240° Southwest 152 175 1,600 -720 Descending Boston Center
11:32PM 42.7922 -73.8094 179° South 104 120 1,000 -600 Descending Boston Center